Time;durP1;ratioP1;P1;durP2;ratioP2;P2;SDS_P1;SDS_P2;PMS_P1;PMS_P2;Temp;Humidity;BMP_temperature;BMP_pressure;BME280_temperature;BME280_humidity;BME280_pressure;Samples;Min_cycle;Max_cycle;Signal;HPM_P1;HPM_P2
2023/02/07 00:01:34;;;;;;;367.20;216.20;;;;;;;-4.41;68.87;102983.05;110779;1255;21971;-79
2023/02/07 00:04:02;;;;;;;359.40;212.10;;;;;;;-4.44;68.92;102981.29;110983;1255;23782;-79
2023/02/07 00:06:33;;;;;;;359.10;208.70;;;;;;;-4.46;69.01;102986.09;110839;1256;22524;-79
2023/02/07 00:09:06;;;;;;;361.10;208.60;;;;;;;-4.48;69.02;102995.12;110776;1256;22013;-79
2023/02/07 00:11:35;;;;;;;;;;;;;;;-4.51;69.00;102998.51;111060;1256;23036;-79
2023/02/07 00:14:04;;;;;;;339.90;189.90;;;;;;;-4.60;69.13;102995.17;111083;1256;21967;-79
2023/02/07 00:16:32;;;;;;;345.90;199.10;;;;;;;-4.64;69.17;102989.50;110924;1256;23792;-79
2023/02/07 00:19:00;;;;;;;335.60;193.40;;;;;;;-4.63;69.25;102984.29;110927;1256;21960;-79
2023/02/07 00:21:28;;;;;;;329.80;192.60;;;;;;;-4.62;69.33;102973.48;111047;1255;22717;-81
2023/02/07 00:23:57;;;;;;;339.60;190.80;;;;;;;-4.60;69.31;102968.52;110461;1262;21966;-81
2023/02/07 00:26:27;;;;;;;317.50;179.80;;;;;;;-4.59;69.38;102962.48;110598;1262;22240;-81
2023/02/07 00:28:56;;;;;;;307.00;176.10;;;;;;;-4.58;69.41;102959.34;110662;1262;22727;-80
2023/02/07 00:31:29;;;;;;;282.50;168.30;;;;;;;-4.55;69.51;102957.98;110486;1262;22026;-78
2023/02/07 00:34:04;;;;;;;304.60;173.80;;;;;;;-4.52;69.68;102948.48;110262;1261;21968;-80
2023/02/07 00:36:34;;;;;;;296.10;168.40;;;;;;;-4.48;69.72;102941.58;110238;1261;23048;-79
2023/02/07 00:39:08;;;;;;;284.80;161.30;;;;;;;-4.46;69.59;102934.27;110221;1262;21977;-80
2023/02/07 00:41:36;;;;;;;289.70;159.70;;;;;;;-4.45;69.59;102925.31;110490;1256;21966;-78
2023/02/07 00:44:04;;;;;;;286.50;165.00;;;;;;;-4.45;69.53;102920.70;111063;1256;23007;-79
2023/02/07 00:46:34;;;;;;;289.80;167.70;;;;;;;-4.45;69.52;102917.30;110943;1256;21981;-80
2023/02/07 00:49:04;;;;;;;294.50;170.40;;;;;;;-4.48;69.43;102911.88;111020;1256;23017;-80
2023/02/07 00:51:32;;;;;;;298.50;172.60;;;;;;;-4.50;69.45;102906.94;110891;1256;21965;-80
2023/02/07 00:54:00;;;;;;;296.00;168.90;;;;;;;-4.54;69.41;102902.45;110968;1256;21944;-79
2023/02/07 00:56:31;;;;;;;295.90;170.50;;;;;;;-4.58;69.40;102910.52;110894;1256;22666;-81
2023/02/07 00:58:59;;;;;;;299.40;171.50;;;;;;;-4.62;69.50;102915.05;111141;1256;21960;-79
2023/02/07 01:01:26;;;;;;;301.30;172.60;;;;;;;-4.64;69.39;102919.63;111192;1254;22874;-79
2023/02/07 01:03:57;;;;;;;305.10;173.30;;;;;;;-4.66;69.43;102920.69;110967;1255;21998;-79
2023/02/07 01:06:26;;;;;;;295.10;169.60;;;;;;;-4.68;69.51;102919.54;111062;1255;21951;-78
2023/02/07 01:08:58;;;;;;;295.40;169.70;;;;;;;-4.71;69.54;102917.84;111134;1255;22752;-80
2023/02/07 01:11:28;;;;;;;282.60;164.20;;;;;;;-4.73;69.48;102921.48;110560;1261;23704;-79
2023/02/07 01:14:01;;;;;;;295.60;173.00;;;;;;;-4.76;69.45;102916.52;110417;1261;23049;-79
2023/02/07 01:16:34;;;;;;;298.90;169.30;;;;;;;-4.77;69.56;102906.92;110456;1261;21969;-79
2023/02/07 01:19:08;;;;;;;295.60;168.90;;;;;;;-4.76;69.79;102908.20;110551;1261;23663;-80
2023/02/07 01:21:37;;;;;;;297.10;167.90;;;;;;;-4.75;69.77;102914.55;110612;1261;21978;-79
2023/02/07 01:24:08;;;;;;;298.80;170.60;;;;;;;-4.75;69.67;102912.99;110573;1261;23836;-80
2023/02/07 01:26:38;;;;;;;317.70;175.70;;;;;;;-4.76;69.70;102915.29;110367;1261;22115;-79
2023/02/07 01:29:06;;;;;;;305.40;175.90;;;;;;;-4.78;69.70;102914.37;110799;1256;22057;-80
2023/02/07 01:31:35;;;;;;;301.90;170.80;;;;;;;-4.78;69.68;102912.77;111090;1256;23079;-78
2023/02/07 01:34:03;;;;;;;293.10;170.10;;;;;;;-4.78;69.82;102915.70;110894;1256;22035;-79
2023/02/07 01:36:33;;;;;;;298.00;171.10;;;;;;;-4.78;69.84;102910.25;111082;1256;23586;-80
2023/02/07 01:39:02;;;;;;;306.60;170.00;;;;;;;-4.77;69.93;102905.77;110949;1256;24273;-80
2023/02/07 01:41:30;;;;;;;290.50;167.20;;;;;;;-4.75;69.93;102904.50;109513;1255;1864929;-80
2023/02/07 01:44:26;;;;;;;298.00;170.40;;;;;;;-4.75;69.84;102905.86;110919;1255;23769;-81
2023/02/07 01:46:55;;;;;;;283.40;162.00;;;;;;;-4.79;69.82;102908.52;111052;1255;21968;-80
2023/02/07 01:49:33;;;;;;;287.10;167.00;;;;;;;-4.81;69.88;102910.71;111143;1255;21957;-80
2023/02/07 01:52:09;;;;;;;285.20;162.90;;;;;;;-4.85;69.77;102911.80;110558;1261;23703;-80
2023/02/07 01:54:39;;;;;;;282.40;158.80;;;;;;;-4.90;69.76;102912.69;110478;1261;23813;-80
2023/02/07 01:57:13;;;;;;;291.00;159.30;;;;;;;-4.94;69.82;102915.47;110391;1261;21977;-80
2023/02/07 01:59:43;;;;;;;274.20;152.00;;;;;;;-4.97;69.77;102916.67;109621;1268;23080;-80
2023/02/07 02:02:16;;;;;;;273.60;153.80;;;;;;;-4.99;69.72;102906.98;110176;1268;22052;-81
2023/02/07 02:04:50;;;;;;;273.40;153.40;;;;;;;-5.02;69.74;102903.05;109548;1264;23052;-79
2023/02/07 02:07:18;;;;;;;282.70;150.20;;;;;;;-5.04;69.83;102909.36;109684;1268;23746;-80
2023/02/07 02:09:46;;;;;;;271.20;146.90;;;;;;;-5.05;69.90;102917.98;109610;1261;22434;-79
2023/02/07 02:13:01;;;;;;;291.00;156.40;;;;;;;-5.06;69.97;102912.33;110303;1261;23037;-81
2023/02/07 02:16:22;;;;;;;280.90;149.60;;;;;;;-5.09;69.90;102909.74;110687;1261;21934;-80
2023/02/07 02:19:28;;;;;;;293.60;149.70;;;;;;;-5.13;70.00;102914.59;111039;1240;22268;-80
2023/02/07 02:22:04;;;;;;;302.60;153.70;;;;;;;-5.15;70.10;102914.11;110075;1268;21983;-80
2023/02/07 02:25:11;;;;;;;301.90;157.10;;;;;;;-5.14;70.06;102916.02;110186;1268;22127;-80
2023/02/07 02:28:06;;;;;;;306.90;156.50;;;;;;;-5.15;70.05;102916.63;109129;1275;22187;-81
2023/02/07 02:31:41;;;;;;;301.40;151.30;;;;;;;-5.15;70.16;102907.14;108939;1275;21940;-79
2023/02/07 02:34:24;;;;;;;265.10;137.00;;;;;;;-5.14;70.34;102890.05;108853;1281;22013;-80
2023/02/07 02:37:16;;;;;;;243.20;117.70;;;;;;;-5.09;70.47;102893.73;108552;1281;21994;-80
2023/02/07 02:40:12;;;;;;;218.50;117.70;;;;;;;-5.06;70.49;102896.53;108723;1277;21918;-80
2023/02/07 02:43:05;;;;;;;218.60;120.70;;;;;;;-5.03;70.51;102898.42;108908;1277;22007;-80
2023/02/07 02:46:06;;;;;;;227.10;121.40;;;;;;;-5.00;70.55;102902.15;108774;1277;23171;-80
2023/02/07 02:48:36;;;;;;;245.80;126.00;;;;;;;-5.00;70.42;102902.66;108967;1277;22001;-80
2023/02/07 02:51:04;;;;;;;227.40;125.70;;;;;;;-5.00;70.25;102901.66;108682;1277;21994;-80
2023/02/07 02:53:32;;;;;;;230.50;129.10;;;;;;;-5.00;70.34;102898.64;108644;1277;23084;-80
2023/02/07 02:56:28;;;;;;;218.40;122.50;;;;;;;-5.00;70.36;102897.73;108872;1277;21987;-80
2023/02/07 02:59:16;;;;;;;217.90;125.30;;;;;;;-5.04;70.45;102904.30;109275;1261;21989;-82
2023/02/07 03:02:25;;;;;;;253.80;138.50;;;;;;;-5.08;70.47;102903.87;109408;1271;24211;-78
2023/02/07 03:05:38;;;;;;;252.60;133.20;;;;;;;-5.13;70.29;102907.09;110012;1265;22020;-79
2023/02/07 03:08:23;;;;;;;245.90;130.90;;;;;;;-5.18;70.32;102906.63;109424;1272;23062;-79
2023/02/07 03:11:17;;;;;;;223.70;128.70;;;;;;;-5.20;70.28;102905.23;109751;1267;21978;-79
2023/02/07 03:14:21;;;;;;;232.90;126.20;;;;;;;-5.23;70.33;102897.91;110026;1266;21981;-79
2023/02/07 03:17:13;;;;;;;217.30;120.20;;;;;;;-5.24;70.44;102896.16;110060;1266;21983;-79
2023/02/07 03:20:02;;;;;;;211.70;117.50;;;;;;;-5.23;70.48;102898.27;110093;1267;21973;-80
2023/02/07 03:22:33;;;;;;;197.50;111.20;;;;;;;-5.22;70.45;102905.27;109439;1272;21980;-80
2023/02/07 03:25:04;;;;;;;211.50;116.80;;;;;;;-5.20;70.56;102907.60;109315;1272;21983;-83
2023/02/07 03:27:35;;;;;;;215.90;112.50;;;;;;;-5.19;70.49;102909.21;109361;1272;22881;-79
2023/02/07 03:30:09;;;;;;;207.50;114.50;;;;;;;-5.20;70.48;102908.48;109338;1272;22047;-78
2023/02/07 03:32:42;;;;;;;209.80;118.50;;;;;;;-5.20;70.41;102910.70;109370;1272;21976;-80
2023/02/07 03:35:31;;;;;;;201.40;113.80;;;;;;;-5.21;70.40;102907.73;109388;1272;23090;-80
2023/02/07 03:38:03;;;;;;;208.60;113.20;;;;;;;-5.22;70.44;102912.10;109357;1272;24470;-78
2023/02/07 03:40:43;;;;;;;196.40;111.80;;;;;;;-5.23;70.30;102912.02;109596;1267;23042;-80
2023/02/07 03:43:26;;;;;;;186.60;111.20;;;;;;;-5.24;70.28;102912.31;110090;1264;23052;-80
2023/02/07 03:45:55;;;;;;;202.00;112.50;;;;;;;-5.24;70.48;102906.20;110576;1258;22171;-81
2023/02/07 03:48:24;;;;;;;183.10;111.80;;;;;;;-5.23;70.50;102904.40;110926;1257;21971;-80
2023/02/07 03:50:52;;;;;;;194.60;113.20;;;;;;;-5.25;70.49;102906.80;110936;1256;21960;-80
2023/02/07 03:53:20;;;;;;;194.40;112.80;;;;;;;-5.27;70.42;102908.33;111106;1255;21926;-80
2023/02/07 03:55:48;;;;;;;177.30;103.80;;;;;;;-5.32;70.31;102912.10;110534;1263;21984;-79
2023/02/07 03:58:16;;;;;;;164.70;104.70;;;;;;;-5.38;70.29;102911.70;110111;1262;21980;-79
2023/02/07 04:00:44;;;;;;;187.40;111.00;;;;;;;-5.41;70.36;102916.36;110185;1262;22747;-80
2023/02/07 04:03:13;;;;;;;182.60;112.50;;;;;;;-5.44;70.33;102917.06;110193;1261;21980;-79
2023/02/07 04:05:44;;;;;;;182.90;112.50;;;;;;;-5.45;70.48;102909.50;110346;1263;23717;-79
2023/02/07 04:08:12;;;;;;;184.90;108.90;;;;;;;-5.45;70.64;102904.61;110325;1262;21972;-79
2023/02/07 04:10:40;;;;;;;171.20;106.00;;;;;;;-5.42;70.64;102901.70;110446;1262;22727;-79
2023/02/07 04:13:08;;;;;;;179.30;109.60;;;;;;;-5.39;70.71;102904.46;110257;1256;21963;-78
2023/02/07 04:15:36;;;;;;;172.90;109.00;;;;;;;-5.36;70.67;102902.83;110850;1256;23037;-79
2023/02/07 04:18:04;;;;;;;175.90;106.20;;;;;;;-5.33;70.69;102902.86;110887;1257;21962;-79
2023/02/07 04:20:32;;;;;;;167.70;103.10;;;;;;;-5.31;70.72;102900.79;110785;1256;23711;-80
2023/02/07 04:23:00;;;;;;;159.50;102.20;;;;;;;-5.29;70.76;102903.98;110964;1256;21959;-79
2023/02/07 04:25:28;;;;;;;166.20;99.90;;;;;;;-5.27;70.80;102909.05;110802;1257;21965;-78
2023/02/07 04:27:57;;;;;;;152.90;96.10;;;;;;;-5.24;70.81;102911.74;110954;1256;21961;-79
2023/02/07 04:30:25;;;;;;;154.30;97.30;;;;;;;-5.22;70.83;102910.35;110808;1256;22101;-78
2023/02/07 04:32:53;;;;;;;152.30;95.80;;;;;;;-5.20;70.82;102911.19;110641;1256;21976;-79
2023/02/07 04:35:21;;;;;;;158.10;100.80;;;;;;;-5.19;70.82;102906.88;110696;1257;23021;-80
2023/02/07 04:37:49;;;;;;;154.70;98.70;;;;;;;-5.16;70.83;102905.67;110856;1256;22146;-78
2023/02/07 04:40:17;;;;;;;166.90;103.90;;;;;;;-5.15;70.86;102907.31;110637;1257;23042;-79
2023/02/07 04:42:45;;;;;;;191.30;110.40;;;;;;;-5.15;70.75;102900.65;110988;1256;21971;-79
2023/02/07 04:45:13;;;;;;;156.80;104.20;;;;;;;-5.17;70.68;102897.81;110720;1256;22233;-80
2023/02/07 04:47:41;;;;;;;165.30;104.90;;;;;;;-5.18;70.72;102896.88;110806;1256;21992;-80
2023/02/07 04:50:09;;;;;;;165.90;105.00;;;;;;;-5.20;70.64;102895.23;110880;1256;23811;-80
2023/02/07 04:52:39;;;;;;;166.20;105.70;;;;;;;-5.22;70.64;102894.56;110880;1256;23036;-78
2023/02/07 04:55:09;;;;;;;173.40;108.10;;;;;;;-5.27;70.57;102895.66;110763;1256;22023;-78
2023/02/07 04:57:37;;;;;;;182.80;110.10;;;;;;;-5.31;70.65;102894.34;110801;1257;22009;-81
2023/02/07 05:00:05;;;;;;;176.90;111.40;;;;;;;-5.35;70.66;102896.29;110851;1256;23731;-79
2023/02/07 05:02:34;;;;;;;170.90;106.50;;;;;;;-5.38;70.61;102897.06;110896;1256;22223;-80
2023/02/07 05:05:02;;;;;;;179.10;109.30;;;;;;;-5.42;70.59;102895.81;110736;1257;21990;-80
2023/02/07 05:07:34;;;;;;;187.20;111.00;;;;;;;-5.43;70.63;102896.03;110692;1257;22711;-79
2023/02/07 05:10:05;;;;;;;173.70;107.50;;;;;;;-5.45;70.60;102895.90;110768;1256;22349;-81
2023/02/07 05:12:33;;;;;;;171.00;107.20;;;;;;;-5.47;70.66;102893.97;110666;1256;21970;-79
2023/02/07 05:15:01;;;;;;;160.10;101.90;;;;;;;-5.47;70.60;102893.25;110922;1256;22149;-78
2023/02/07 05:17:33;;;;;;;156.60;99.90;;;;;;;-5.46;70.82;102889.42;111045;1257;23651;-79
2023/02/07 05:20:02;;;;;;;166.20;104.80;;;;;;;-5.43;70.95;102887.58;110958;1244;23032;-80
2023/02/07 05:22:30;;;;;;;156.40;101.40;;;;;;;-5.39;71.08;102889.05;110731;1256;21966;-79
2023/02/07 05:24:59;;;;;;;155.30;96.80;;;;;;;-5.36;71.06;102887.41;111052;1257;22951;-78
2023/02/07 05:27:27;;;;;;;150.50;97.40;;;;;;;-5.32;71.06;102882.73;110925;1257;23612;-79
2023/02/07 05:29:55;;;;;;;149.80;96.10;;;;;;;-5.27;71.15;102887.45;110575;1258;22275;-80
2023/02/07 05:35:16;;;;;;;149.30;93.90;;;;;;;-5.17;71.32;102896.66;110809;1257;22735;-81
2023/02/07 05:37:46;;;;;;;153.60;98.40;;;;;;;-5.09;71.34;102900.24;110917;1257;23600;-80
2023/02/07 05:40:14;;;;;;;145.70;95.40;;;;;;;-5.01;71.41;102904.33;110787;1258;22882;-80
2023/02/07 05:42:42;;;;;;;141.60;94.50;;;;;;;-4.93;71.43;102914.07;110735;1257;21956;-80
2023/02/07 05:45:11;;;;;;;144.30;93.90;;;;;;;-4.84;71.52;102919.73;110860;1257;23027;-80
2023/02/07 05:47:39;;;;;;;151.80;100.00;;;;;;;-4.74;71.61;102920.70;110841;1257;23660;-81
2023/02/07 05:50:07;;;;;;;148.60;97.20;;;;;;;-4.65;71.59;102927.60;111002;1257;21973;-80
2023/02/07 05:52:36;;;;;;;136.00;91.50;;;;;;;-4.56;71.75;102926.31;110781;1257;23719;-80
2023/02/07 05:55:04;;;;;;;135.60;88.90;;;;;;;-4.46;71.76;102917.56;110765;1258;23703;-79
2023/02/07 05:57:32;;;;;;;131.80;89.90;;;;;;;-4.37;71.68;102911.70;110781;1258;22853;-82
2023/02/07 06:00:03;;;;;;;130.40;89.50;;;;;;;-4.29;71.72;102914.77;110898;1257;22531;-81
2023/02/07 06:02:40;;;;;;;126.80;86.80;;;;;;;-4.21;71.65;102926.86;110987;1257;21933;-82
2023/02/07 06:05:11;;;;;;;124.70;85.70;;;;;;;-4.13;71.64;102928.89;110796;1257;21969;-82
2023/02/07 06:07:40;;;;;;;123.10;82.30;;;;;;;-4.04;71.70;102928.62;110694;1257;21960;-78
2023/02/07 06:10:09;;;;;;;118.50;81.60;;;;;;;-3.97;71.77;102928.40;110772;1258;21957;-81
2023/02/07 06:12:41;;;;;;;123.20;82.90;;;;;;;-3.89;71.82;102933.98;111039;1257;21975;-80
2023/02/07 06:15:09;;;;;;;131.30;86.70;;;;;;;-3.81;71.88;102936.65;110773;1256;21997;-80
2023/02/07 06:17:37;;;;;;;138.40;87.00;;;;;;;-3.76;71.76;102938.87;110988;1254;21990;-81
2023/02/07 06:20:10;;;;;;;107.10;75.90;;;;;;;-3.70;71.86;102942.33;111065;1257;22007;-82
2023/02/07 06:22:39;;;;;;;112.30;75.80;;;;;;;-3.64;71.88;102945.90;110756;1257;21935;-83
2023/02/07 06:25:10;;;;;;;109.70;78.20;;;;;;;-3.58;71.85;102948.30;110820;1257;21971;-80
2023/02/07 06:27:40;;;;;;;112.90;74.20;;;;;;;-3.52;71.81;102948.67;110784;1257;22040;-81
2023/02/07 06:30:12;;;;;;;102.40;75.40;;;;;;;-3.46;71.83;102949.56;110836;1257;23750;-82
2023/02/07 06:32:40;;;;;;;110.30;74.50;;;;;;;-3.39;71.77;102954.77;110383;1262;24364;-79
2023/02/07 06:35:21;;;;;;;116.70;78.40;;;;;;;-3.32;71.83;102956.70;110438;1262;21964;-81
2023/02/07 06:37:54;;;;;;;101.70;74.90;;;;;;;-3.27;71.84;102957.20;109718;1268;21967;-80
2023/02/07 06:40:25;;;;;;;100.00;72.20;;;;;;;-3.22;71.76;102959.70;109537;1268;21988;-82
2023/02/07 06:42:53;;;;;;;111.40;75.80;;;;;;;-3.16;71.62;102958.20;109877;1267;21977;-80
2023/02/07 06:45:21;;;;;;;108.20;74.80;;;;;;;-3.10;71.60;102956.14;109668;1268;21982;-81
2023/02/07 06:47:49;;;;;;;104.80;75.20;;;;;;;-3.04;71.56;102956.49;108984;1275;23816;-81
2023/02/07 06:50:17;;;;;;;101.30;72.80;;;;;;;-2.98;71.46;102958.20;108707;1276;22148;-81
2023/02/07 06:52:45;;;;;;;103.90;72.60;;;;;;;-2.95;71.47;102961.15;108681;1279;23058;-82
2023/02/07 06:55:14;;;;;;;107.30;74.30;;;;;;;-2.91;71.46;102962.91;108585;1282;22370;-81
2023/02/07 06:57:51;;;;;;;100.60;72.60;;;;;;;-2.86;71.62;102965.39;108636;1281;22000;-81
2023/02/07 07:00:20;;;;;;;97.30;71.00;;;;;;;-2.82;71.48;102969.42;108699;1282;21996;-81
2023/02/07 07:02:49;;;;;;;94.90;68.90;;;;;;;-2.76;71.47;102968.55;108512;1281;21993;-82
2023/02/07 07:05:22;;;;;;;97.90;71.90;;;;;;;-2.71;71.49;102964.42;108716;1275;23011;-83
2023/02/07 07:07:55;;;;;;;103.10;73.20;;;;;;;-2.67;71.42;102963.60;109220;1271;23016;-78
2023/02/07 07:10:27;;;;;;;99.30;74.30;;;;;;;-2.68;71.31;102965.77;109534;1263;21982;-82
2023/02/07 07:13:01;;;;;;;102.10;74.40;;;;;;;-2.69;71.20;102966.41;110490;1253;22032;-79
2023/02/07 07:15:56;;;;;;;104.40;75.10;;;;;;;-2.70;71.32;102970.28;110954;1257;21981;-79
2023/02/07 07:18:38;;;;;;;103.90;77.50;;;;;;;-2.69;71.24;102973.75;110756;1257;22008;-78
2023/02/07 07:21:27;;;;;;;108.90;76.60;;;;;;;-2.67;71.10;102976.54;110936;1244;23026;-79
2023/02/07 07:24:28;;;;;;;103.70;73.70;;;;;;;-2.66;71.35;102980.02;110340;1265;23036;-79
2023/02/07 07:27:01;;;;;;;105.40;74.90;;;;;;;-2.62;71.41;102976.38;110134;1265;21972;-81
2023/02/07 07:29:35;;;;;;;101.80;74.10;;;;;;;-2.56;71.41;102975.18;110410;1265;21994;-79
2023/02/07 07:32:26;;;;;;;104.20;78.90;;;;;;;-2.53;71.35;102973.63;110536;1265;22814;-80
2023/02/07 07:35:13;;;;;;;;;;;;;;;-2.49;71.32;102974.54;110436;1264;21962;-79
2023/02/07 07:37:48;;;;;;;109.80;71.00;;;;;;;-2.53;71.33;102972.60;109805;1271;21989;-80
2023/02/07 07:40:25;;;;;;;103.00;74.20;;;;;;;-2.50;71.32;102967.48;109928;1260;23039;-79
2023/02/07 07:42:57;;;;;;;107.30;75.90;;;;;;;-2.44;71.30;102972.96;109598;1271;24358;-80
2023/02/07 07:45:40;;;;;;;103.80;75.30;;;;;;;-2.36;71.38;102967.60;109903;1271;22024;-80
2023/02/07 07:48:15;;;;;;;108.70;82.00;;;;;;;-2.26;71.39;102963.22;109668;1268;22489;-81
2023/02/07 07:50:50;;;;;;;118.10;88.90;;;;;;;-2.19;71.23;102959.87;109675;1272;21995;-81
2023/02/07 07:53:27;;;;;;;130.00;97.10;;;;;;;-2.14;71.07;102957.58;109427;1272;23711;-80
2023/02/07 07:56:07;;;;;;;;;;;;;;;;;;;;;
2023/02/07 07:59:04;;;;;;;134.20;86.40;;;;;;;-2.12;70.94;102952.23;109460;1266;22056;-79
2023/02/07 08:01:50;;;;;;;131.00;87.60;;;;;;;-2.11;70.80;102953.83;109800;1265;22084;-80
2023/02/07 08:04:23;;;;;;;132.70;89.40;;;;;;;-2.09;70.88;102950.73;110339;1264;21973;-80
2023/02/07 08:07:02;;;;;;;125.60;87.30;;;;;;;-2.05;70.88;102946.84;110227;1265;21982;-79
2023/02/07 08:09:50;;;;;;;128.20;90.00;;;;;;;-2.06;70.81;102945.90;110225;1265;22249;-80
2023/02/07 08:13:01;;;;;;;118.70;85.00;;;;;;;-2.06;70.94;102944.21;109386;1272;22756;-79
2023/02/07 08:16:07;;;;;;;202.90;134.20;;;;;;;-2.02;71.02;102946.30;110202;1265;23721;-81
2023/02/07 08:19:24;;;;;;;188.40;133.50;;;;;;;-1.98;71.05;102943.60;109674;1270;22180;-79
2023/02/07 08:21:58;;;;;;;136.40;99.20;;;;;;;-1.91;71.07;102947.59;109483;1270;22010;-78
2023/02/07 08:24:29;;;;;;;112.10;85.30;;;;;;;-1.81;71.13;102946.77;109644;1270;22142;-79
2023/02/07 08:27:00;;;;;;;107.20;78.50;;;;;;;-1.72;71.13;102950.33;109405;1270;21987;-79
2023/02/07 08:29:44;;;;;;;102.00;74.50;;;;;;;-1.64;71.00;102951.27;109372;1265;22002;-79
2023/02/07 08:32:32;;;;;;;104.70;80.60;;;;;;;-1.59;70.82;102946.98;110182;1264;22033;-82
2023/02/07 08:35:12;;;;;;;109.20;83.60;;;;;;;-1.54;70.74;102950.11;109525;1269;22048;-79
2023/02/07 08:37:40;;;;;;;110.70;79.30;;;;;;;-1.47;70.65;102949.27;109328;1272;23679;-80
2023/02/07 08:40:11;;;;;;;110.60;80.50;;;;;;;-1.42;70.48;102950.39;109073;1274;22084;-80
2023/02/07 08:42:45;;;;;;;106.30;77.60;;;;;;;-1.37;70.41;102948.81;109069;1274;21982;-79
2023/02/07 08:45:14;;;;;;;99.40;74.90;;;;;;;-1.32;70.41;102948.70;109120;1273;22041;-79
2023/02/07 08:47:45;;;;;;;95.30;69.70;;;;;;;-1.29;70.18;102949.71;109192;1274;22031;-79
2023/02/07 08:50:23;;;;;;;110.60;79.10;;;;;;;-1.29;70.08;102951.62;109479;1269;21979;-79
2023/02/07 08:53:04;;;;;;;109.60;77.70;;;;;;;-1.28;69.97;102958.33;109592;1269;22072;-79
2023/02/07 08:55:35;;;;;;;108.20;79.60;;;;;;;-1.29;69.89;102964.77;109355;1270;22991;-79
2023/02/07 08:58:08;;;;;;;113.10;87.00;;;;;;;-1.27;69.89;102969.98;109501;1270;22739;-79
2023/02/07 09:00:47;;;;;;;108.00;82.50;;;;;;;-1.25;69.89;102976.77;109419;1271;23735;-78
2023/02/07 09:03:26;;;;;;;108.00;81.10;;;;;;;-1.23;69.67;102976.84;109519;1270;21995;-79
2023/02/07 09:06:10;;;;;;;102.70;76.00;;;;;;;-1.22;69.72;102970.42;109476;1270;22768;-79
2023/02/07 09:08:49;;;;;;;102.90;75.10;;;;;;;-1.17;69.83;102970.86;109061;1274;22018;-79
2023/02/07 09:11:32;;;;;;;91.00;70.50;;;;;;;-1.13;69.77;102975.85;109463;1269;21983;-79
2023/02/07 09:14:25;;;;;;;89.00;73.20;;;;;;;-1.10;69.76;102979.75;109825;1264;22040;-80
2023/02/07 09:16:56;;;;;;;86.20;65.20;;;;;;;-1.08;69.71;102985.84;109071;1265;23055;-79
2023/02/07 09:19:44;;;;;;;;;;;;;;;;;;;;;
2023/02/07 09:22:16;;;;;;;84.80;62.30;;;;;;;-1.02;69.75;102982.10;109515;1271;21976;-79
2023/02/07 09:24:59;;;;;;;84.20;64.40;;;;;;;-0.99;69.70;102980.18;109234;1273;23825;-78
2023/02/07 09:27:39;;;;;;;88.60;64.30;;;;;;;-0.96;69.67;102980.30;109011;1273;21980;-78
2023/02/07 09:30:15;;;;;;;90.30;67.80;;;;;;;-0.90;69.62;102979.24;109286;1273;22079;-79
2023/02/07 09:32:52;;;;;;;104.10;72.90;;;;;;;-0.85;69.79;102973.20;109277;1270;23618;-80
2023/02/07 09:35:48;;;;;;;91.30;66.00;;;;;;;-0.80;69.73;102973.42;110187;1263;22199;-79
2023/02/07 09:38:24;;;;;;;93.10;68.40;;;;;;;-0.79;69.56;102974.36;110276;1258;21983;-78
2023/02/07 09:42:28;;;;;;;90.60;66.70;;;;;;;-0.79;69.59;102977.96;110450;1263;22071;-81
2023/02/07 09:45:30;;;;;;;95.10;68.40;;;;;;;-0.76;69.66;102970.56;109854;1257;23034;-81
2023/02/07 09:49:29;;;;;;;105.80;76.10;;;;;;;-0.74;69.53;102967.25;109901;1265;21656;-80
2023/02/07 09:52:16;;;;;;;107.60;76.90;;;;;;;-0.73;69.52;102968.46;110315;1263;23748;-81
2023/02/07 09:54:59;;;;;;;101.70;72.30;;;;;;;-0.71;69.48;102973.23;110024;1265;21985;-81
2023/02/07 09:58:13;;;;;;;98.00;74.20;;;;;;;-0.67;69.37;102978.34;109983;1265;21973;-81
2023/02/07 10:01:33;;;;;;;110.70;79.50;;;;;;;-0.61;69.39;102979.01;110272;1265;23703;-84
2023/02/07 10:04:29;;;;;;;92.40;69.60;;;;;;;-0.53;69.37;102977.17;110198;1261;21979;-82
2023/02/07 10:07:20;;;;;;;91.50;68.30;;;;;;;-0.46;69.14;102977.71;110299;1264;21966;-82
2023/02/07 10:10:02;;;;;;;87.70;62.10;;;;;;;-0.39;69.21;102976.34;110345;1264;21976;-82
2023/02/07 10:13:08;;;;;;;75.20;59.20;;;;;;;-0.32;69.05;102975.62;110067;1264;21985;-83
2023/02/07 10:15:57;;;;;;;69.20;55.00;;;;;;;-0.29;68.97;102976.48;110497;1256;21955;-82
2023/02/07 10:18:51;;;;;;;75.80;54.10;;;;;;;-0.26;68.98;102972.20;110747;1260;23701;-82
2023/02/07 10:22:16;;;;;;;70.00;53.70;;;;;;;-0.21;68.95;102974.31;109773;1268;23310;-81
2023/02/07 10:25:23;;;;;;;84.50;60.70;;;;;;;-0.19;68.92;102972.34;108766;1278;21995;-81
2023/02/07 10:28:57;;;;;;;86.40;76.60;;;;;;;-0.19;68.67;102973.90;109482;1279;23721;-81
2023/02/07 10:32:09;;;;;;;75.20;55.20;;;;;;;-0.20;68.46;102973.35;109240;1285;22007;-82
2023/02/07 10:34:57;;;;;;;71.40;53.80;;;;;;;-0.16;68.50;102979.01;109133;1288;22007;-82
2023/02/07 10:37:30;;;;;;;70.30;55.70;;;;;;;-0.11;68.37;102978.40;108541;1282;23743;-82
2023/02/07 10:40:07;;;;;;;78.40;57.10;;;;;;;-0.05;68.17;102972.67;108886;1278;22776;-81
2023/02/07 10:42:54;;;;;;;77.40;56.50;;;;;;;-0.01;68.12;102971.69;109131;1273;23087;-82
2023/02/07 10:45:33;;;;;;;71.00;57.90;;;;;;;0.04;68.05;102972.42;109358;1271;23727;-83
2023/02/07 10:48:18;;;;;;;72.30;58.10;;;;;;;0.07;67.92;102971.72;109445;1272;21944;-83
2023/02/07 10:51:43;;;;;;;73.20;60.00;;;;;;;0.11;67.71;102965.88;109486;1272;23983;-82
2023/02/07 10:54:56;;;;;;;83.70;60.30;;;;;;;0.11;67.69;102968.15;109227;1271;23074;-82
2023/02/07 10:57:42;;;;;;;74.50;55.40;;;;;;;0.08;67.53;102972.60;109262;1273;23659;-81
2023/02/07 11:00:39;;;;;;;76.90;56.60;;;;;;;0.08;67.61;102964.40;109469;1260;21973;-81
2023/02/07 11:03:45;;;;;;;76.30;58.00;;;;;;;0.08;67.60;102959.94;110124;1264;21979;-80
2023/02/07 11:06:30;;;;;;;79.60;58.70;;;;;;;0.08;67.55;102959.10;110251;1263;21974;-84
2023/02/07 11:09:30;;;;;;;75.80;56.10;;;;;;;0.10;67.35;102957.29;110398;1263;22628;-82
2023/02/07 11:12:26;;;;;;;75.40;55.90;;;;;;;0.10;67.37;102948.22;110323;1263;23024;-80
2023/02/07 11:15:47;;;;;;;71.00;53.90;;;;;;;0.11;67.36;102947.39;110348;1264;21986;-80
2023/02/07 11:18:46;;;;;;;76.90;56.20;;;;;;;0.11;67.33;102945.17;110401;1259;22973;-81
2023/02/07 11:22:14;;;;;;;;;;;;;;;;;;;;;
2023/02/07 11:25:38;;;;;;;67.90;51.00;;;;;;;0.16;67.32;102935.83;109962;1269;23068;-84
2023/02/07 11:28:40;;;;;;;71.30;53.80;;;;;;;0.20;67.22;102937.20;110335;1265;23808;-83
2023/02/07 11:31:47;;;;;;;77.60;56.00;;;;;;;0.25;67.16;102930.05;109962;1265;22006;-84
2023/02/07 11:35:12;;;;;;;86.20;60.60;;;;;;;0.26;67.14;102922.40;110417;1263;21960;-84
2023/02/07 11:38:40;;;;;;;78.50;55.50;;;;;;;0.27;67.14;102914.94;110476;1264;22009;-83
2023/02/07 11:42:04;;;;;;;69.80;50.30;;;;;;;0.28;67.08;102910.68;110088;1268;22745;-81
2023/02/07 11:45:07;;;;;;;70.50;50.10;;;;;;;0.27;66.79;102910.61;109663;1265;22621;-82
2023/02/07 11:48:57;;;;;;;;;;;;;;;;;;;;;
2023/02/07 11:52:20;;;;;;;66.40;48.40;;;;;;;0.28;66.92;102914.26;108845;1279;22025;-82
2023/02/07 11:55:33;;;;;;;62.90;43.90;;;;;;;0.33;66.69;102915.38;108521;1283;23758;-80
2023/02/07 11:58:51;;;;;;;73.90;51.30;;;;;;;0.33;66.47;102913.98;108579;1284;21997;-82
2023/02/07 12:01:44;;;;;;;66.30;51.10;;;;;;;0.30;66.31;102910.27;108706;1281;22001;-85
2023/02/07 12:04:43;;;;;;;;;;;;;;;;;;;;;